createdAt,value
2023-02-14T00:00:57.606Z,7.67
2023-02-14T00:03:24.492Z,8.00
2023-02-14T00:05:51.212Z,7.97
2023-02-14T00:08:18.218Z,8.40
2023-02-14T00:10:44.883Z,7.80
2023-02-14T00:13:11.567Z,7.47
2023-02-14T00:15:38.246Z,8.50
2023-02-14T00:18:06.155Z,9.47
2023-02-14T00:20:32.825Z,8.50
2023-02-14T00:23:00.759Z,8.33
2023-02-14T00:25:27.505Z,8.30
2023-02-14T00:27:55.426Z,8.93
2023-02-14T00:30:22.204Z,7.60
2023-02-14T00:32:48.915Z,8.17
2023-02-14T00:35:16.865Z,9.07
2023-02-14T00:37:45.169Z,9.00
2023-02-14T00:40:12.049Z,9.20
2023-02-14T00:42:39.553Z,7.30
2023-02-14T00:45:06.511Z,9.30
2023-02-14T00:47:35.178Z,8.80
2023-02-14T00:50:02.877Z,8.17
2023-02-14T00:52:30.580Z,9.50
2023-02-14T00:54:58.599Z,9.00
2023-02-14T00:57:25.267Z,8.10
2023-02-14T00:59:51.973Z,8.70
2023-02-14T01:02:18.663Z,8.80
2023-02-14T01:04:45.406Z,8.50
2023-02-14T01:07:12.052Z,8.40
2023-02-14T01:09:38.723Z,8.50
2023-02-14T01:12:05.610Z,9.30
2023-02-14T01:14:32.297Z,8.17
2023-02-14T01:16:59.057Z,9.07
2023-02-14T01:19:25.783Z,8.63
2023-02-14T01:21:52.931Z,9.20
2023-02-14T01:24:22.586Z,7.80
2023-02-14T01:26:49.284Z,7.73
2023-02-14T01:29:15.957Z,9.33
2023-02-14T01:31:42.925Z,9.60
2023-02-14T01:34:09.651Z,9.63
2023-02-14T01:36:38.861Z,9.60
2023-02-14T01:39:12.509Z,8.97
2023-02-14T01:41:41.360Z,8.80
2023-02-14T01:44:14.181Z,8.50
2023-02-14T01:46:42.676Z,9.20
2023-02-14T01:49:16.546Z,8.80
2023-02-14T01:52:03.836Z,8.20
2023-02-14T01:54:32.762Z,8.40
2023-02-14T01:57:03.309Z,9.70
2023-02-14T01:59:35.935Z,9.23
2023-02-14T02:02:03.186Z,9.60
2023-02-14T02:04:34.474Z,9.00
2023-02-14T02:07:07.727Z,9.23
2023-02-14T02:09:55.126Z,9.80
2023-02-14T02:12:24.392Z,9.07
2023-02-14T02:14:54.542Z,8.77
2023-02-14T02:17:42.875Z,10.17
2023-02-14T02:20:45.989Z,8.40
2023-02-14T02:23:39.515Z,8.60
2023-02-14T02:26:21.157Z,8.53
2023-02-14T02:29:24.210Z,9.90
2023-02-14T02:32:11.494Z,8.30
2023-02-14T02:35:09.420Z,9.43
2023-02-14T02:38:01.283Z,8.90
2023-02-14T02:40:48.614Z,9.10
2023-02-14T02:43:26.768Z,9.30
2023-02-14T02:46:19.099Z,9.37
2023-02-14T02:49:51.530Z,8.00
2023-02-14T02:52:51.073Z,10.43
2023-02-14T02:55:26.301Z,8.30
2023-02-14T02:57:55.104Z,9.20
2023-02-14T03:00:23.611Z,9.07
2023-02-14T03:03:13.211Z,9.50
2023-02-14T03:05:40.798Z,8.97
2023-02-14T03:08:07.554Z,9.87
2023-02-14T03:10:38.768Z,9.87
2023-02-14T03:13:16.709Z,9.63
2023-02-14T03:15:52.455Z,8.73
2023-02-14T03:18:57.632Z,9.20
2023-02-14T03:21:42.443Z,9.77
2023-02-14T03:24:26.992Z,11.00
2023-02-14T03:27:17.995Z,9.50
2023-02-14T03:29:59.817Z,10.07
2023-02-14T03:32:38.905Z,9.87
2023-02-14T03:35:24.406Z,9.80
2023-02-14T03:38:03.784Z,10.30
2023-02-14T03:40:44.805Z,9.33
2023-02-14T03:43:23.270Z,9.53
2023-02-14T03:45:56.816Z,10.13
2023-02-14T03:48:26.086Z,11.27
2023-02-14T03:50:54.719Z,10.50
2023-02-14T03:53:28.505Z,10.47
2023-02-14T03:56:14.046Z,10.90
2023-02-14T03:58:45.282Z,11.73
2023-02-14T04:01:19.668Z,10.50
2023-02-14T04:03:47.220Z,11.30
2023-02-14T04:06:14.069Z,11.43
2023-02-14T04:08:40.735Z,10.80
2023-02-14T04:11:07.625Z,11.80
2023-02-14T04:13:36.712Z,10.77
2023-02-14T04:16:04.184Z,11.53
2023-02-14T04:18:50.158Z,12.27
2023-02-14T04:21:17.529Z,10.70
2023-02-14T04:23:44.183Z,12.57
2023-02-14T04:26:11.219Z,11.80
2023-02-14T04:28:37.937Z,12.30
2023-02-14T04:31:06.641Z,11.60
2023-02-14T04:33:33.916Z,13.70
2023-02-14T04:36:01.241Z,12.60
2023-02-14T04:38:27.925Z,13.50
2023-02-14T04:40:54.629Z,12.07
2023-02-14T04:43:21.336Z,13.70
2023-02-14T04:45:47.980Z,13.40
2023-02-14T04:48:14.713Z,12.60
2023-02-14T04:50:41.430Z,14.90
2023-02-14T04:53:08.463Z,13.53
2023-02-14T04:55:35.232Z,13.43
2023-02-14T04:58:01.943Z,14.47
2023-02-14T05:00:28.681Z,14.77
2023-02-14T05:02:55.361Z,16.23
2023-02-14T05:05:22.032Z,15.83
2023-02-14T05:07:49.262Z,15.63
2023-02-14T05:10:16.063Z,15.20
2023-02-14T05:12:42.809Z,14.80
2023-02-14T05:15:10.036Z,17.77
2023-02-14T05:17:37.212Z,16.37
2023-02-14T05:20:05.820Z,15.60
2023-02-14T05:22:32.558Z,16.40
2023-02-14T05:24:59.263Z,16.53
2023-02-14T05:27:26.238Z,16.10
2023-02-14T05:29:52.934Z,16.57
2023-02-14T05:32:19.645Z,16.43
2023-02-14T05:34:46.361Z,16.93
2023-02-14T05:37:13.010Z,16.67
2023-02-14T05:39:39.672Z,17.50
2023-02-14T05:42:06.305Z,17.70
2023-02-14T05:44:32.982Z,17.97
2023-02-14T05:46:59.726Z,18.40
2023-02-14T05:49:26.432Z,17.90
2023-02-14T05:51:53.134Z,19.17
2023-02-14T05:54:19.819Z,19.10
2023-02-14T05:56:46.461Z,18.60
2023-02-14T05:59:14.482Z,18.17
2023-02-14T06:01:41.131Z,19.80
2023-02-14T06:04:07.896Z,18.70
2023-02-14T06:06:36.607Z,18.10
2023-02-14T06:09:03.578Z,18.83
2023-02-14T06:11:30.389Z,19.57
2023-02-14T06:13:57.874Z,19.10
2023-02-14T06:16:24.560Z,15.70
2023-02-14T06:18:51.233Z,17.17
2023-02-14T06:21:17.924Z,16.60
2023-02-14T06:23:44.557Z,16.67
2023-02-14T06:26:11.317Z,17.37
2023-02-14T06:28:37.979Z,15.53
2023-02-14T06:31:05.175Z,17.10
2023-02-14T06:33:31.950Z,17.20
2023-02-14T06:35:58.716Z,14.27
2023-02-14T06:38:25.350Z,16.50
2023-02-14T06:40:51.989Z,16.77
2023-02-14T06:43:18.642Z,15.77
2023-02-14T06:45:46.671Z,18.20
2023-02-14T06:48:13.354Z,15.03
2023-02-14T06:50:40.050Z,16.57
2023-02-14T06:53:06.753Z,17.97
2023-02-14T06:55:33.451Z,17.17
2023-02-14T06:58:00.133Z,17.13
2023-02-14T07:00:26.977Z,15.67
2023-02-14T07:02:53.681Z,15.77
2023-02-14T07:05:20.539Z,17.40
2023-02-14T07:07:47.898Z,17.37
2023-02-14T07:10:15.789Z,18.57
2023-02-14T07:12:42.577Z,17.07
2023-02-14T07:15:12.188Z,17.33
2023-02-14T07:17:38.974Z,19.00
2023-02-14T07:20:07.208Z,16.47
2023-02-14T07:22:34.220Z,18.07
2023-02-14T07:25:00.901Z,18.40
2023-02-14T07:27:27.630Z,16.83
2023-02-14T07:29:54.378Z,17.70
2023-02-14T07:32:21.420Z,17.87
2023-02-14T07:34:48.226Z,17.67
2023-02-14T07:37:16.665Z,17.57
2023-02-14T07:39:44.366Z,18.53
2023-02-14T07:42:11.709Z,18.80
2023-02-14T07:44:42.136Z,18.70
2023-02-14T07:47:09.815Z,17.77
2023-02-14T07:49:36.993Z,17.80
2023-02-14T07:52:04.676Z,17.27
2023-02-14T07:54:31.345Z,18.00
2023-02-14T07:56:58.032Z,18.43
2023-02-14T07:59:26.055Z,16.37
2023-02-14T08:01:53.010Z,17.97
2023-02-14T08:04:19.744Z,18.20
2023-02-14T08:06:46.412Z,17.30
2023-02-14T08:09:24.455Z,19.17
2023-02-14T08:12:11.485Z,17.00
2023-02-14T08:14:38.362Z,18.10
2023-02-14T08:17:07.160Z,16.00
2023-02-14T08:19:34.297Z,16.97
2023-02-14T08:22:00.925Z,17.17
2023-02-14T08:24:27.860Z,16.17
2023-02-14T08:26:54.538Z,15.90
2023-02-14T08:29:21.271Z,16.33
2023-02-14T08:31:48.750Z,16.90
2023-02-14T08:34:16.813Z,16.97
2023-02-14T08:36:43.687Z,15.67
2023-02-14T08:39:10.464Z,16.67
2023-02-14T08:41:37.194Z,16.63
2023-02-14T08:44:03.937Z,15.83
2023-02-14T08:46:30.644Z,15.30
2023-02-14T08:48:57.348Z,15.10
2023-02-14T08:51:24.049Z,15.40
2023-02-14T08:53:51.879Z,14.93
2023-02-14T08:56:21.228Z,16.30
2023-02-14T08:58:51.179Z,15.53
2023-02-14T09:01:18.981Z,13.70
2023-02-14T09:03:45.772Z,14.17
2023-02-14T09:06:16.902Z,14.00
2023-02-14T09:08:44.978Z,15.27
2023-02-14T09:11:22.084Z,14.50
2023-02-14T09:13:50.058Z,13.97
2023-02-14T09:16:17.926Z,14.70
2023-02-14T09:18:46.137Z,14.13
2023-02-14T09:21:19.799Z,12.50
2023-02-14T09:23:46.483Z,14.07
2023-02-14T09:26:15.769Z,13.43
2023-02-14T09:28:44.076Z,13.07
2023-02-14T09:31:21.450Z,11.50
2023-02-14T09:34:08.245Z,13.10
2023-02-14T09:36:53.786Z,13.23
2023-02-14T09:39:20.577Z,12.83
2023-02-14T09:42:13.561Z,12.40
2023-02-14T09:44:45.376Z,13.67
2023-02-14T09:47:37.387Z,12.80
2023-02-14T09:50:07.758Z,12.67
2023-02-14T09:52:34.484Z,12.20
2023-02-14T09:55:03.156Z,13.10
2023-02-14T09:57:38.562Z,12.27
2023-02-14T10:00:25.320Z,12.30
2023-02-14T10:03:07.770Z,12.50
2023-02-14T10:06:01.864Z,13.70
2023-02-14T10:09:11.761Z,13.33
2023-02-14T10:11:39.329Z,14.17
2023-02-14T10:14:17.079Z,12.60
2023-02-14T10:16:49.820Z,13.60
2023-02-14T10:19:39.820Z,14.67
2023-02-14T10:22:18.869Z,13.77
2023-02-14T10:25:06.551Z,13.53
2023-02-14T10:27:43.800Z,12.47
2023-02-14T10:30:23.590Z,14.10
2023-02-14T10:33:17.561Z,12.93
2023-02-14T10:36:00.594Z,14.37
2023-02-14T10:39:09.042Z,13.50
2023-02-14T10:41:35.638Z,13.37
2023-02-14T10:44:16.587Z,13.40
2023-02-14T10:46:57.094Z,14.33
2023-02-14T10:49:33.021Z,14.07
2023-02-14T10:52:15.589Z,14.97
2023-02-14T10:54:45.682Z,13.10
2023-02-14T10:57:40.642Z,11.70
2023-02-14T11:00:23.259Z,13.57
2023-02-14T11:02:53.828Z,13.40
2023-02-14T11:05:25.807Z,13.07
2023-02-14T11:07:52.831Z,12.63
2023-02-14T11:10:26.369Z,13.00
2023-02-14T11:12:53.810Z,14.13
2023-02-14T11:15:28.848Z,13.33
2023-02-14T11:18:24.824Z,12.87
2023-02-14T11:21:04.294Z,12.20
2023-02-14T11:23:57.376Z,13.47
2023-02-14T11:26:32.394Z,11.90
2023-02-14T11:29:10.270Z,12.80
2023-02-14T11:31:38.696Z,12.40
2023-02-14T11:34:24.130Z,12.43
2023-02-14T11:36:50.926Z,11.33
2023-02-14T11:39:32.560Z,13.77
2023-02-14T11:42:03.977Z,13.00
2023-02-14T11:44:33.124Z,12.60
2023-02-14T11:47:28.888Z,13.10
2023-02-14T11:49:58.410Z,13.63
2023-02-14T11:52:29.517Z,13.53
2023-02-14T11:54:58.233Z,12.17
2023-02-14T11:57:38.785Z,14.40
2023-02-14T12:00:19.842Z,12.40
2023-02-14T12:02:49.701Z,12.57
2023-02-14T12:05:19.470Z,14.13
2023-02-14T12:07:55.311Z,14.03
2023-02-14T12:10:32.793Z,13.33
2023-02-14T12:13:08.299Z,12.23
2023-02-14T12:15:44.848Z,12.43
2023-02-14T12:18:24.628Z,12.37
2023-02-14T12:21:36.613Z,13.03
2023-02-14T12:24:28.022Z,12.63
2023-02-14T12:27:02.530Z,13.43
2023-02-14T12:29:50.587Z,12.60
2023-02-14T12:32:25.265Z,12.60
2023-02-14T12:35:03.417Z,12.10
2023-02-14T12:37:36.095Z,12.97
2023-02-14T12:40:31.685Z,11.60
2023-02-14T12:43:38.900Z,11.93
2023-02-14T12:46:39.459Z,12.00
2023-02-14T12:49:18.547Z,12.40
2023-02-14T12:52:09.672Z,10.97
2023-02-14T12:54:57.078Z,10.80
2023-02-14T12:57:54.081Z,12.60
2023-02-14T13:00:34.461Z,10.43
2023-02-14T13:03:19.475Z,10.73
2023-02-14T13:06:09.989Z,11.37
2023-02-14T13:08:39.653Z,12.40
2023-02-14T13:11:15.250Z,12.30
2023-02-14T13:13:53.478Z,11.83
2023-02-14T13:16:33.401Z,11.70
2023-02-14T13:19:16.010Z,10.63
2023-02-14T13:21:44.182Z,11.40
2023-02-14T13:24:22.720Z,10.63
2023-02-14T13:26:56.137Z,11.50
2023-02-14T13:29:25.475Z,11.10
2023-02-14T13:31:57.282Z,12.80
2023-02-14T13:34:30.585Z,11.30
2023-02-14T13:36:59.088Z,11.93
2023-02-14T13:39:38.654Z,10.40
2023-02-14T13:42:07.205Z,11.40
2023-02-14T13:44:46.300Z,11.00
2023-02-14T13:47:24.279Z,10.47
2023-02-14T13:50:01.611Z,11.27
2023-02-14T13:52:48.778Z,11.70
2023-02-14T13:55:25.190Z,10.43
2023-02-14T13:58:05.710Z,10.60
2023-02-14T14:00:42.578Z,10.67
2023-02-14T14:03:35.704Z,10.87
2023-02-14T14:06:11.727Z,10.10
2023-02-14T14:08:42.159Z,9.37
2023-02-14T14:11:26.033Z,9.83
2023-02-14T14:13:57.044Z,9.57
2023-02-14T14:16:24.078Z,9.50
2023-02-14T14:19:21.066Z,9.83
2023-02-14T14:22:09.096Z,9.20
2023-02-14T14:24:40.774Z,9.13
2023-02-14T14:27:19.813Z,9.17
2023-02-14T14:29:55.893Z,8.57
2023-02-14T14:32:38.039Z,9.40
2023-02-14T14:35:23.951Z,10.07
2023-02-14T14:37:57.526Z,9.43
2023-02-14T14:40:29.132Z,10.57
2023-02-14T14:43:01.633Z,9.60
2023-02-14T14:45:31.260Z,9.70
2023-02-14T14:48:00.428Z,9.77
2023-02-14T14:50:30.362Z,10.27
2023-02-14T14:53:02.858Z,9.70
2023-02-14T14:55:32.811Z,10.20
2023-02-14T14:58:04.000Z,10.87
2023-02-14T15:00:38.535Z,9.93
2023-02-14T15:03:11.826Z,10.00
2023-02-14T15:05:42.602Z,9.57
2023-02-14T15:08:24.425Z,9.67
2023-02-14T15:11:00.198Z,10.80
2023-02-14T15:13:49.724Z,10.33
2023-02-14T15:16:34.950Z,10.10
2023-02-14T15:19:11.351Z,10.90
2023-02-14T15:21:43.462Z,10.00
2023-02-14T15:24:17.759Z,9.20
2023-02-14T15:26:46.957Z,9.67
2023-02-14T15:29:26.812Z,9.00
2023-02-14T15:31:54.270Z,10.57
2023-02-14T15:34:24.804Z,9.63
2023-02-14T15:36:55.967Z,9.70
2023-02-14T15:39:27.297Z,9.63
2023-02-14T15:41:55.507Z,8.80
2023-02-14T15:44:24.862Z,9.10
2023-02-14T15:47:03.465Z,9.23
2023-02-14T15:49:36.357Z,9.03
2023-02-14T15:52:06.580Z,8.67
2023-02-14T15:54:46.569Z,8.00
2023-02-14T15:57:27.941Z,9.00
2023-02-14T15:59:55.042Z,9.93
2023-02-14T16:02:38.383Z,10.33
2023-02-14T16:05:18.402Z,8.83
2023-02-14T16:08:05.649Z,11.80
2023-02-14T16:10:37.438Z,8.80
2023-02-14T16:13:20.403Z,10.03
2023-02-14T16:16:16.932Z,9.20
2023-02-14T16:18:47.570Z,9.97
2023-02-14T16:21:23.517Z,9.90
2023-02-14T16:24:11.283Z,8.80
2023-02-14T16:26:45.413Z,10.53
2023-02-14T16:29:15.698Z,8.87
2023-02-14T16:32:06.187Z,10.10
2023-02-14T16:34:31.734Z,9.37
2023-02-14T16:36:58.402Z,8.90
2023-02-14T16:39:26.230Z,9.80
2023-02-14T16:41:55.378Z,9.80
2023-02-14T16:44:22.499Z,9.00
2023-02-14T16:46:49.145Z,9.30
2023-02-14T16:49:15.828Z,10.73
2023-02-14T16:51:46.209Z,9.53
2023-02-14T16:54:17.509Z,9.60
2023-02-14T16:56:59.518Z,9.27
2023-02-14T16:59:26.193Z,9.67
2023-02-14T17:01:53.339Z,9.40
2023-02-14T17:04:21.045Z,10.57
2023-02-14T17:06:53.396Z,9.93
2023-02-14T17:09:25.659Z,10.93
2023-02-14T17:11:54.546Z,11.07
2023-02-14T17:14:26.771Z,11.30
2023-02-14T17:16:55.082Z,10.87
2023-02-14T17:19:21.831Z,10.00
2023-02-14T17:21:48.671Z,10.63
2023-02-14T17:24:15.790Z,11.33
2023-02-14T17:26:42.430Z,9.50
2023-02-14T17:29:09.685Z,11.40
2023-02-14T17:31:37.002Z,10.83
2023-02-14T17:34:03.961Z,10.70
2023-02-14T17:36:30.961Z,12.10
2023-02-14T17:38:57.844Z,13.00
2023-02-14T17:41:26.425Z,11.60
2023-02-14T17:43:54.770Z,10.90
2023-02-14T17:46:22.123Z,13.40
2023-02-14T17:48:49.176Z,12.53
2023-02-14T17:51:17.886Z,14.07
2023-02-14T17:53:44.540Z,13.07
2023-02-14T17:56:14.470Z,12.10
2023-02-14T17:58:41.255Z,13.13
2023-02-14T18:01:11.297Z,16.87
2023-02-14T18:03:39.249Z,13.37
2023-02-14T18:06:07.520Z,12.10
2023-02-14T18:08:37.077Z,13.30
2023-02-14T18:11:09.307Z,15.20
2023-02-14T18:13:36.823Z,13.00
2023-02-14T18:16:05.791Z,14.97
2023-02-14T18:18:33.175Z,13.37
2023-02-14T18:21:02.050Z,17.40
2023-02-14T18:23:30.652Z,13.10
2023-02-14T18:26:01.122Z,13.80
2023-02-14T18:28:28.318Z,14.40
2023-02-14T18:30:57.687Z,12.80
2023-02-14T18:33:25.588Z,13.10
2023-02-14T18:35:52.440Z,13.73
2023-02-14T18:38:19.604Z,14.60
2023-02-14T18:40:46.768Z,13.50
2023-02-14T18:43:13.613Z,13.30
2023-02-14T18:45:40.541Z,13.90
2023-02-14T18:48:08.965Z,14.13
2023-02-14T18:50:35.776Z,14.10
2023-02-14T18:53:02.446Z,14.00
2023-02-14T18:55:29.160Z,12.70
2023-02-14T18:57:55.915Z,13.30
2023-02-14T19:00:23.611Z,14.17
2023-02-14T19:02:50.277Z,13.53
2023-02-14T19:05:17.000Z,15.27
2023-02-14T19:07:43.646Z,13.50
2023-02-14T19:10:11.033Z,14.20
2023-02-14T19:12:37.689Z,14.70
2023-02-14T19:15:05.938Z,14.00
2023-02-14T19:17:32.901Z,14.90
2023-02-14T19:19:59.693Z,13.73
2023-02-14T19:22:26.462Z,13.43
2023-02-14T19:24:53.789Z,15.10
2023-02-14T19:27:21.469Z,14.60
2023-02-14T19:29:48.325Z,14.33
2023-02-14T19:32:15.166Z,13.47
2023-02-14T19:34:41.873Z,15.10
2023-02-14T19:37:08.616Z,14.30
2023-02-14T19:39:35.322Z,15.23
2023-02-14T19:42:03.912Z,14.60
2023-02-14T19:44:32.299Z,16.80
2023-02-14T19:47:09.811Z,15.70
2023-02-14T19:49:42.596Z,14.63
2023-02-14T19:52:25.649Z,16.20
2023-02-14T19:54:55.282Z,15.10
2023-02-14T19:57:22.092Z,16.00
2023-02-14T19:59:49.003Z,16.93
2023-02-14T20:02:18.242Z,14.83
2023-02-14T20:04:45.115Z,16.50
2023-02-14T20:07:11.944Z,16.07
2023-02-14T20:09:38.666Z,16.50
2023-02-14T20:12:05.724Z,16.37
2023-02-14T20:14:49.882Z,16.73
2023-02-14T20:17:18.090Z,15.90
2023-02-14T20:19:44.916Z,15.13
2023-02-14T20:22:11.966Z,14.73
2023-02-14T20:24:38.670Z,15.70
2023-02-14T20:27:05.387Z,16.77
2023-02-14T20:29:33.073Z,15.53
2023-02-14T20:32:03.203Z,18.37
2023-02-14T20:34:30.488Z,17.77
2023-02-14T20:36:59.166Z,16.73
2023-02-14T20:39:36.511Z,16.77
2023-02-14T20:42:04.374Z,15.50
2023-02-14T20:44:31.632Z,15.93
2023-02-14T20:46:58.843Z,16.43
2023-02-14T20:49:26.973Z,16.80
2023-02-14T20:51:54.303Z,17.37
2023-02-14T20:54:24.232Z,17.70
2023-02-14T20:56:51.516Z,15.90
2023-02-14T20:59:26.804Z,16.17
2023-02-14T21:01:54.866Z,18.73
2023-02-14T21:04:21.863Z,16.80
2023-02-14T21:06:49.087Z,17.17
2023-02-14T21:09:16.591Z,18.60
2023-02-14T21:11:43.265Z,17.60
2023-02-14T21:14:10.440Z,18.20
2023-02-14T21:16:37.148Z,19.10
2023-02-14T21:19:04.725Z,18.17
2023-02-14T21:21:35.905Z,17.73
2023-02-14T21:24:05.940Z,18.40
2023-02-14T21:26:32.707Z,18.30
2023-02-14T21:28:59.461Z,17.73
2023-02-14T21:31:26.871Z,20.13
2023-02-14T21:33:55.875Z,17.93
2023-02-14T21:36:24.944Z,20.47
2023-02-14T21:38:54.171Z,16.83
2023-02-14T21:41:23.295Z,17.40
2023-02-14T21:43:55.012Z,18.03
2023-02-14T21:46:27.513Z,18.17
2023-02-14T21:49:14.047Z,18.27
2023-02-14T21:51:41.308Z,16.90
2023-02-14T21:54:08.694Z,19.40
2023-02-14T21:56:36.953Z,19.97
2023-02-14T21:59:03.737Z,19.17
2023-02-14T22:01:36.056Z,18.97
2023-02-14T22:04:07.701Z,19.33
2023-02-14T22:06:37.203Z,18.10
2023-02-14T22:09:04.237Z,18.20
2023-02-14T22:11:31.175Z,19.20
2023-02-14T22:13:58.546Z,19.70
2023-02-14T22:16:25.315Z,20.40
2023-02-14T22:18:52.458Z,22.13
2023-02-14T22:21:22.862Z,20.13
2023-02-14T22:23:49.960Z,19.50
2023-02-14T22:26:20.137Z,19.87
2023-02-14T22:28:48.256Z,18.97
2023-02-14T22:31:17.131Z,17.20
2023-02-14T22:33:44.460Z,19.47
2023-02-14T22:36:11.414Z,19.60
2023-02-14T22:38:38.399Z,20.03
2023-02-14T22:41:16.954Z,19.23
2023-02-14T22:43:43.994Z,18.87
2023-02-14T22:46:17.406Z,21.83
2023-02-14T22:48:44.193Z,19.63
2023-02-14T22:51:29.085Z,18.03
2023-02-14T22:53:58.531Z,19.03
2023-02-14T22:56:31.074Z,21.03
2023-02-14T22:59:00.778Z,18.90
2023-02-14T23:01:28.338Z,19.83
2023-02-14T23:03:57.053Z,21.03
2023-02-14T23:06:25.322Z,18.07
2023-02-14T23:08:52.845Z,19.53
2023-02-14T23:11:25.113Z,18.57
2023-02-14T23:14:10.757Z,18.70
2023-02-14T23:16:56.157Z,19.20
2023-02-14T23:19:47.613Z,20.20
2023-02-14T23:22:19.555Z,19.13
2023-02-14T23:24:47.418Z,20.80
2023-02-14T23:27:15.255Z,22.10
2023-02-14T23:29:41.900Z,20.57
2023-02-14T23:32:09.424Z,19.23
2023-02-14T23:34:39.157Z,20.90
2023-02-14T23:37:06.488Z,20.57
2023-02-14T23:39:35.686Z,21.10
2023-02-14T23:42:07.583Z,20.10
2023-02-14T23:44:34.706Z,20.97
2023-02-14T23:47:04.293Z,20.93
2023-02-14T23:49:32.729Z,21.07
2023-02-14T23:51:59.938Z,21.30
2023-02-14T23:54:27.019Z,21.17
2023-02-14T23:56:54.774Z,20.50
2023-02-14T23:59:22.019Z,21.73
